Airfield :
LOGIN :

Register | Disclaimer

   EN    FR    IT 

 










Legend :    VFR   Marginal VFR   IFR   Intensive IFR   Very Intensive IFR
Visi :
Ceiling :
>= 8 km
>= 3000ft
5 to 8 km
1000 to 3000 ft
1500m to 5 km
500 to 1000 ft
800 to 1500m
200 to 500 ft
< 800m
< 200 ft
Symbols :   Thunderstorms  Fog  Heavy snow  Heavy precipitations  Wind > 20 kt
SIGMETs :     Misc.  Thunderstorms  Icing  Turbulence  Mountain Waves  Volcanic Ashes







- Airport Elevation : 751 ft
- IATA code : ENC
- Download approach charts


LFSN - Nancy Essey

CURRENT METAR :
  • 191230Z AUTO 05009KT 030V090 CAVOK 20/11 Q1021

EXPIRED METARs :
  • 191200Z AUTO 05008KT 020V080 CAVOK 19/11 Q1022
  • 191130Z AUTO 03009KT 340V060 9000 NSC 18/11 Q1022
  • 191100Z AUTO 04009KT 9000 NSC 17/11 Q1022
  • 191030Z AUTO 03009KT 9000 NSC 16/11 Q1022
  • 191000Z AUTO 04007KT 010V090 8000 FEW014 15/11 Q1022

Expired Forecast.
No reported NOTAMs for that airfield.



MET'MAP, your aeronautical weather chart ! - Copyright ORBIFLY December 2007 - Disclaimer

ORBIFLY MET'MAP TEAM :

Programming & Development : Alexandra Zaïnal
Concept & Development : Baudouin d'Aumeries
Co-Development & Prog : Marc-Olivier Méhu
Technical & hardware support : Manuel Goepfert

Contact : metmap@orbifly.com




SOURCES & CREDITS :

   NOAA